Dobrodošli na spletni strani vremenske postaje Senovo. Vse informacije so informativnega značaja, saj vremenska postaja ni del državne mreže meteoroloških postaj. AKTUALNIH OBVESTIL NI.


Sneg/Led Od: 22-02-2018 00:00 Do: 23-02-2018 23:59 Opozorilo za: Sneg/Led Stopnja: Rumena info button
Veter Od: 22-02-2018 00:00 Do: 23:59 Opozorilo za: Veter Stopnja: Rumena info button

Pogled proti Armezu več informacij Pogled proti Armezu


Lisca več informacij Lisca


Radar strel več informacij blitzortung!


opozorilo za sneg/led več informacij rain snow radar


Obiščite še:

Template documentation
and downloads

And another site



Weather Underground, zgodovina - Tekstovno

Dnevni povzetek za Januar 28, 2018 Enote:  Metrično    Angleško   Obe
« Predhodni Dan
Naslednji Dan »
Dnevni Tedenski Mesečni Letni Po meri
  Višja: Nižja: Povprečje:
Temperatura: -17.8 °C -18 °C -16.2 °C
Točka rosišča: -17.8 °C -18.8 °C -16.9 °C
Vlažnost: Humidity % 87 % 91 %
Hitrost vetra: 0 km/h 0 km/h 2.4 km/h
Sunki vetra: 0 km/h - -
Veter:- - SSW
Zračni tlak: 0 hPa 34875.8 hPa -
Padavine: 0 mm    
Historical Graphs
 
 
Tabelarni podarki za Januar 28, 2018
Čas Temperatura Točka rosišča Zračni tlak Veter Hitrost vetra Sunki vetra Vlažnost Intenziteta padavin (urna)
-17.8 °C -17.8 °C 0 hPa Calm     Humidity % 0 mm
00:04 -16.1 °C -16.8 °C 34946.9 hPa East 3.1 km/h 7.6 km/h 91 % 0 mm
00:09 -16.1 °C -16.8 °C 34946.9 hPa East 3.7 km/h 7.6 km/h 91 % 0 mm
00:14 -16.1 °C -16.8 °C 34980.8 hPa East 4.7 km/h 11.1 km/h 91 % 0 mm
00:19 -16.1 °C -16.8 °C 34980.8 hPa East 4.7 km/h 11.1 km/h 91 % 0 mm
00:24 -16.1 °C -16.8 °C 34980.8 hPa East 5.5 km/h 9.8 km/h 91 % 0 mm
00:29 -16.2 °C -16.9 °C 34980.8 hPa East 6.3 km/h 9.8 km/h 91 % 0 mm
00:34 -16.2 °C -16.9 °C 34980.8 hPa East 6 km/h 9.8 km/h 91 % 0 mm
00:39 -16.2 °C -16.9 °C 34980.8 hPa East 6.3 km/h 10.3 km/h 91 % 0 mm
00:44 -16.2 °C -16.9 °C 34980.8 hPa East 6.4 km/h 10.3 km/h 91 % 0 mm
00:49 -16.2 °C -16.9 °C 34980.8 hPa East 6.4 km/h 9.8 km/h 91 % 0 mm
00:54 -16.2 °C -16.9 °C 34980.8 hPa East 6.4 km/h 9.8 km/h 91 % 0 mm
00:59 -16.2 °C -16.9 °C 34980.8 hPa East 6.3 km/h 9.8 km/h 91 % 0 mm
01:04 -16.2 °C -16.9 °C 34980.8 hPa East 6.3 km/h 9.8 km/h 91 % 0 mm
01:09 -16.2 °C -16.9 °C 34980.8 hPa East 5.6 km/h 9.3 km/h 91 % 0 mm
01:14 -16.2 °C -16.9 °C 34946.9 hPa ESE 3.4 km/h 7.6 km/h 91 % 0 mm
01:19 -16.2 °C -16.9 °C 34946.9 hPa East 3.4 km/h 7.6 km/h 91 % 0 mm
01:24 -16.2 °C -16.9 °C 34946.9 hPa East 3.9 km/h 7.6 km/h 91 % 0 mm
01:29 -16.2 °C -16.9 °C 34980.8 hPa East 3.4 km/h 8.9 km/h 91 % 0 mm
01:34 -16.2 °C -16.9 °C 34980.8 hPa ESE 5 km/h 9.3 km/h 91 % 0 mm
01:39 -16.2 °C -16.9 °C 34980.8 hPa East 4.3 km/h 9.3 km/h 91 % 0 mm
01:44 -16.2 °C -16.9 °C 34946.9 hPa East 4.2 km/h 8.9 km/h 91 % 0 mm
01:49 -16.2 °C -16.9 °C 34946.9 hPa East 6.3 km/h 12.2 km/h 91 % 0 mm
01:54 -16.2 °C -16.9 °C 34946.9 hPa East 5.6 km/h 12.2 km/h 91 % 0 mm
01:59 -16.2 °C -16.9 °C 34946.9 hPa East 4.3 km/h 8.9 km/h 91 % 0 mm
02:02 -16.2 °C -16.9 °C 34946.9 hPa East 4.3 km/h 8.9 km/h 91 % 0 mm
02:07 -16.2 °C -16.9 °C 34946.9 hPa East 3.7 km/h 8 km/h 91 % 0 mm
02:12 -16.2 °C -16.9 °C 34946.9 hPa ENE 3.7 km/h 8 km/h 91 % 0 mm
02:17 -16.2 °C -16.9 °C 34946.9 hPa NE 2.6 km/h 6.9 km/h 91 % 0 mm
02:22 -16.2 °C -16.9 °C 34946.9 hPa NE 0.8 km/h 5.6 km/h 91 % 0 mm
02:27 -16.2 °C -16.9 °C 34980.8 hPa Calm     91 % 0 mm
02:32 -16.2 °C -16.9 °C 34980.8 hPa Calm     91 % 0 mm
02:37 -16.2 °C -16.9 °C 34980.8 hPa Calm     91 % 0 mm
02:42 -16.2 °C -16.9 °C 34980.8 hPa Calm     91 % 0 mm
02:47 -16.2 °C -16.9 °C 34980.8 hPa Calm     91 % 0 mm
02:52 -16.2 °C -16.9 °C 34980.8 hPa Calm     91 % 0 mm
02:57 -16.2 °C -16.9 °C 34980.8 hPa Calm     91 % 0 mm
03:02 -16.2 °C -16.9 °C 34980.8 hPa Calm     91 % 0 mm
03:07 -16.2 °C -16.9 °C 34980.8 hPa Calm     91 % 0 mm
03:12 -16.2 °C -16.9 °C 34980.8 hPa Calm     91 % 0 mm
03:17 -16.2 °C -16.9 °C 34980.8 hPa Calm     91 % 0 mm
03:22 -16.2 °C -16.9 °C 34980.8 hPa Calm     91 % 0 mm
03:27 -16.2 °C -16.9 °C 34980.8 hPa Calm     91 % 0 mm
03:32 -16.2 °C -16.9 °C 34980.8 hPa Calm     91 % 0 mm
03:37 -16.2 °C -16.9 °C 34980.8 hPa Calm     91 % 0 mm
03:42 -16.2 °C -16.9 °C 34980.8 hPa Calm     91 % 0 mm
03:47 -16.2 °C -16.9 °C 34980.8 hPa Calm     91 % 0 mm
03:52 -16.2 °C -16.9 °C 34980.8 hPa Calm     91 % 0 mm
03:57 -16.2 °C -16.9 °C 34980.8 hPa Calm     92 % 0 mm
04:02 -16.2 °C -16.9 °C 34980.8 hPa SSW 0.5 km/h 6.4 km/h 92 % 0 mm
04:07 -16.2 °C -16.9 °C 34980.8 hPa SW 2.3 km/h 6.4 km/h 92 % 0 mm
04:12 -16.2 °C -16.9 °C 34980.8 hPa SW 3.1 km/h 6.4 km/h 92 % 0 mm
04:17 -16.2 °C -16.9 °C 34980.8 hPa SW 2.1 km/h 5.6 km/h 92 % 0 mm
04:22 -16.2 °C -16.9 °C 34980.8 hPa SW 2.3 km/h 5.1 km/h 92 % 0 mm
04:27 -16.2 °C -16.9 °C 35014.6 hPa SW 1.6 km/h 5.1 km/h 92 % 0 mm
04:32 -16.2 °C -16.9 °C 35014.6 hPa SSW 0.8 km/h 5.6 km/h 92 % 0 mm
04:37 -16.2 °C -16.9 °C 35014.6 hPa SSW 2.9 km/h 6.4 km/h 92 % 0 mm
04:42 -16.2 °C -16.9 °C 34980.8 hPa SW 4.7 km/h 6.4 km/h 92 % 0 mm
04:47 -16.2 °C -16.9 °C 34980.8 hPa SW 3.9 km/h 6.4 km/h 92 % 0 mm
04:52 -16.2 °C -16.9 °C 34980.8 hPa SW 2.9 km/h 6.4 km/h 92 % 0 mm
04:57 -16.2 °C -16.9 °C 34980.8 hPa SSW 1.8 km/h 5.1 km/h 92 % 0 mm
05:02 -16.2 °C -16.9 °C 34980.8 hPa SSW 2.3 km/h 6.4 km/h 92 % 0 mm
05:07 -16.2 °C -16.9 °C 34980.8 hPa SW 3.4 km/h 6.9 km/h 92 % 0 mm
05:12 -16.2 °C -16.9 °C 34980.8 hPa SW 1.8 km/h 6.9 km/h 92 % 0 mm
05:17 -16.2 °C -16.9 °C 34980.8 hPa SW 0.5 km/h 4.2 km/h 92 % 0 mm
05:22 -16.2 °C -16.9 °C 34980.8 hPa SW 0.3 km/h 4.2 km/h 92 % 0 mm
05:27 -16.2 °C -16.8 °C 34980.8 hPa Calm     92 % 0 mm
05:33 -16.2 °C -16.9 °C 34980.8 hPa Calm     92 % 0 mm
05:38 -16.2 °C -16.8 °C 34980.8 hPa Calm     92 % 0 mm
05:43 -16.2 °C -16.8 °C 34980.8 hPa Calm     92 % 0 mm
05:48 -16.2 °C -16.8 °C 34980.8 hPa Calm     92 % 0 mm
05:53 -16.2 °C -16.8 °C 34980.8 hPa Calm     92 % 0 mm
05:58 -16.2 °C -16.8 °C 34980.8 hPa Calm     92 % 0 mm
06:03 -16.2 °C -16.7 °C 34980.8 hPa Calm     93 % 0 mm
06:08 -16.2 °C -16.7 °C 34980.8 hPa Calm     93 % 0 mm
06:13 -16.2 °C -16.7 °C 34980.8 hPa Calm     93 % 0 mm
06:18 -16.2 °C -16.7 °C 34980.8 hPa Calm     93 % 0 mm
06:23 -16.2 °C -16.7 °C 34980.8 hPa Calm     93 % 0 mm
06:28 -16.2 °C -16.7 °C 34980.8 hPa Calm     93 % 0 mm
06:33 -16.1 °C -16.8 °C 34980.8 hPa South 0.8 km/h 7.6 km/h 92 % 0 mm
06:38 -16.1 °C -16.7 °C 34980.8 hPa South 1 km/h 7.6 km/h 93 % 0 mm
06:43 -16.1 °C -16.7 °C 35014.6 hPa North 0.3 km/h   93 % 0 mm
06:48 -16.1 °C -16.7 °C 35014.6 hPa Calm     93 % 0 mm
06:53 -16.1 °C -16.7 °C 35014.6 hPa Calm     93 % 0 mm
06:58 -16.1 °C -16.7 °C 34980.8 hPa Calm     93 % 0 mm
07:03 -16.1 °C -16.7 °C 34980.8 hPa Calm     93 % 0 mm
07:08 -16.1 °C -16.7 °C 34980.8 hPa SSE 0.5 km/h 6.4 km/h 93 % 0 mm
07:13 -16.1 °C -16.7 °C 34980.8 hPa SSE 2.3 km/h 6.9 km/h 93 % 0 mm
07:18 -16.1 °C -16.7 °C 34980.8 hPa SSE 2.6 km/h 6.9 km/h 93 % 0 mm
07:23 -16.1 °C -16.7 °C 34980.8 hPa SSE 1.3 km/h 6.4 km/h 93 % 0 mm
07:28 -16.1 °C -16.7 °C 34980.8 hPa SSE 1.6 km/h 6.4 km/h 93 % 0 mm
07:33 -16.1 °C -16.7 °C 34980.8 hPa SSE 1 km/h 6.4 km/h 93 % 0 mm
07:38 -16.1 °C -16.7 °C 34980.8 hPa Calm     93 % 0 mm
07:43 -16.1 °C -16.6 °C 35014.6 hPa Calm     93 % 0 mm
07:48 -16.1 °C -16.6 °C 35014.6 hPa Calm   5.6 km/h 93 % 0 mm
07:53 -16.1 °C -16.6 °C 35014.6 hPa South 0.3 km/h 5.6 km/h 93 % 0 mm
07:58 -16.1 °C -16.6 °C 34980.8 hPa South 0.3 km/h 4.2 km/h 93 % 0 mm
08:03 -16.1 °C -16.6 °C 34980.8 hPa SW 0.5 km/h 5.6 km/h 93 % 0 mm
08:08 -16.1 °C -16.6 °C 34980.8 hPa SW 0.5 km/h 5.6 km/h 93 % 0 mm
08:13 -16.1 °C -16.6 °C 34946.9 hPa SSE 0.3 km/h 4.2 km/h 93 % 0 mm
08:18 -16.1 °C -16.6 °C 34946.9 hPa WSW 1.3 km/h 8.9 km/h 93 % 0 mm
08:23 -16 °C -16.6 °C 34946.9 hPa WSW 1.3 km/h 8.9 km/h 93 % 0 mm
08:28 -16 °C -16.5 °C 34980.8 hPa SW 1.8 km/h 7.6 km/h 94 % 0 mm
08:33 -16 °C -16.5 °C 34980.8 hPa SSW 3.4 km/h 10.3 km/h 94 % 0 mm
08:38 -15.9 °C -16.4 °C 34980.8 hPa SSW 3.9 km/h 12.2 km/h 94 % 0 mm
08:43 -15.9 °C -16.4 °C 34946.9 hPa SW 5.5 km/h 12.2 km/h 94 % 0 mm
08:48 -15.9 °C -16.4 °C 34946.9 hPa WSW 6.8 km/h 10.3 km/h 94 % 0 mm
08:53 -15.9 °C -16.4 °C 34946.9 hPa West 6.8 km/h 10.3 km/h 94 % 0 mm
08:59 -15.9 °C -16.4 °C 34980.8 hPa WNW 4.7 km/h 10.3 km/h 94 % 0 mm
09:04 -15.9 °C -16.4 °C 34980.8 hPa West 3.4 km/h 12.2 km/h 94 % 0 mm
09:09 -15.9 °C -16.4 °C 34980.8 hPa West 4.7 km/h 12.2 km/h 94 % 0 mm
09:14 -15.9 °C -16.4 °C 34980.8 hPa WNW 3.9 km/h 10.3 km/h 94 % 0 mm
09:19 -15.9 °C -16.4 °C 34980.8 hPa WSW 3.7 km/h 10.3 km/h 94 % 0 mm
09:24 -15.9 °C -16.4 °C 34980.8 hPa WSW 4.2 km/h 8.9 km/h 94 % 0 mm
09:29 -15.8 °C -16.3 °C 34980.8 hPa West 4.7 km/h 8 km/h 94 % 0 mm
09:34 -15.8 °C -16.3 °C 34980.8 hPa West 3.7 km/h 8.9 km/h 94 % 0 mm
09:39 -15.8 °C -16.3 °C 34980.8 hPa WSW 1.8 km/h 8.9 km/h 94 % 0 mm
09:44 -15.8 °C -16.3 °C 34980.8 hPa SW 2.3 km/h 6.9 km/h 94 % 0 mm
09:49 -15.8 °C -16.3 °C 34980.8 hPa SW 2.3 km/h 6.9 km/h 94 % 0 mm
09:54 -15.8 °C -16.3 °C 34980.8 hPa SW 4.2 km/h 11.1 km/h 94 % 0 mm
09:59 -15.7 °C -16.2 °C 34980.8 hPa SW 6.8 km/h 11.1 km/h 94 % 0 mm
10:04 -15.7 °C -16.2 °C 34980.8 hPa SW 5 km/h 9.8 km/h 94 % 0 mm
10:09 -15.7 °C -16.2 °C 34980.8 hPa SW 2.6 km/h 7.6 km/h 94 % 0 mm
10:14 -15.7 °C -16.2 °C 34980.8 hPa WSW 1.3 km/h 8 km/h 94 % 0 mm
10:19 -15.7 °C -16.2 °C 34980.8 hPa SW 2.6 km/h 9.3 km/h 94 % 0 mm
10:24 -15.7 °C -16.2 °C 34980.8 hPa South 4.7 km/h 11.1 km/h 94 % 0 mm
10:29 -15.7 °C -16.2 °C 34980.8 hPa SW 6.3 km/h 14.5 km/h 94 % 0 mm
10:34 -15.7 °C -16.2 °C 34980.8 hPa SW 8.2 km/h 14.5 km/h 94 % 0 mm
10:39 -15.6 °C -16.1 °C 34980.8 hPa SW 5.6 km/h 10.3 km/h 94 % 0 mm
10:44 -15.6 °C -16.1 °C 35014.6 hPa West 3.9 km/h 9.3 km/h 94 % 0 mm
10:49 -15.6 °C -16.1 °C 35014.6 hPa NW 2.6 km/h 9.3 km/h 94 % 0 mm
10:54 -15.6 °C -16.1 °C 35014.6 hPa WNW 2.9 km/h 11.1 km/h 94 % 0 mm
10:59 -15.6 °C -16.1 °C 34980.8 hPa WNW 6.4 km/h 12.7 km/h 94 % 0 mm
11:04 -15.5 °C -16 °C 34980.8 hPa West 6.8 km/h 15 km/h 94 % 0 mm
11:09 -15.5 °C -16 °C 34980.8 hPa SW 6.9 km/h 15.6 km/h 94 % 0 mm
11:14 -15.4 °C -15.9 °C 35014.6 hPa SSW 8 km/h 15.6 km/h 94 % 0 mm
11:19 -15.4 °C -15.9 °C 35014.6 hPa SW 8.5 km/h 16.9 km/h 94 % 0 mm
11:24 -15.4 °C -15.9 °C 35014.6 hPa SW 9.7 km/h 16.9 km/h 94 % 0 mm
11:29 -15.4 °C -15.9 °C 34980.8 hPa SW 8.9 km/h 15.6 km/h 94 % 0 mm
11:34 -15.3 °C -15.8 °C 34980.8 hPa WSW 6.9 km/h 15 km/h 94 % 0 mm
11:39 -15.3 °C -15.8 °C 34980.8 hPa SW 6.9 km/h 11.6 km/h 94 % 0 mm
11:44 -15.3 °C -15.8 °C 34980.8 hPa SW 8 km/h 12.7 km/h 94 % 0 mm
11:49 -15.2 °C -15.7 °C 34980.8 hPa SW 9 km/h 16.9 km/h 94 % 0 mm
11:54 -15.2 °C -15.7 °C 34980.8 hPa SW 9.3 km/h 16.9 km/h 94 % 0 mm
11:59 -15.2 °C -15.7 °C 34946.9 hPa WSW 7.7 km/h 16.9 km/h 94 % 0 mm
12:04 -15.2 °C -15.7 °C 34946.9 hPa West 6.9 km/h 16.9 km/h 94 % 0 mm
12:09 -15.2 °C -15.7 °C 34946.9 hPa WSW 5.1 km/h 14.5 km/h 94 % 0 mm
12:14 -15.2 °C -15.7 °C 34980.8 hPa SW 5 km/h 11.1 km/h 94 % 0 mm
12:19 -15.2 °C -15.7 °C 34980.8 hPa SW 6.4 km/h 16.9 km/h 94 % 0 mm
12:24 -15.1 °C -15.6 °C 34980.8 hPa WSW 7.7 km/h 16.9 km/h 94 % 0 mm
12:29 -15.1 °C -15.6 °C 34980.8 hPa WSW 9 km/h 20.3 km/h 94 % 0 mm
12:34 -15.1 °C -15.6 °C 34980.8 hPa West 6.4 km/h 20.3 km/h 94 % 0 mm
12:36 -15.1 °C -15.6 °C 34980.8 hPa WNW 5.1 km/h 12.7 km/h 94 % 0 mm
12:41 -15.1 °C -15.6 °C 34980.8 hPa WNW 4.7 km/h 11.1 km/h 94 % 0 mm
12:46 -15 °C -15.6 °C 34980.8 hPa West 5 km/h 11.1 km/h 93 % 0 mm
12:51 -15 °C -15.6 °C 34980.8 hPa West 7.6 km/h 19.6 km/h 93 % 0 mm
12:56 -14.9 °C -15.5 °C 34980.8 hPa West 8.2 km/h 19.6 km/h 93 % 0 mm
13:01 -14.9 °C -15.4 °C 34980.8 hPa WSW 5.1 km/h 12.2 km/h 93 % 0 mm
13:06 -14.8 °C -15.4 °C 34980.8 hPa SW 2.9 km/h 9.8 km/h 93 % 0 mm
13:11 -14.8 °C -15.4 °C 35014.6 hPa West 4.7 km/h 12.2 km/h 93 % 0 mm
13:16 -14.7 °C -15.3 °C 35014.6 hPa SW 7.7 km/h 16.3 km/h 93 % 0 mm
13:21 -14.7 °C -15.3 °C 35014.6 hPa SSW 8.9 km/h 16.3 km/h 93 % 0 mm
13:26 -14.7 °C -15.3 °C 34946.9 hPa SW 7.7 km/h 14.5 km/h 93 % 0 mm
13:31 -14.7 °C -15.3 °C 34946.9 hPa West 6.4 km/h 14.5 km/h 93 % 0 mm
13:36 -14.8 °C -15.4 °C 34946.9 hPa West 6.4 km/h 12.7 km/h 93 % 0 mm
13:41 -14.8 °C -15.4 °C 34946.9 hPa WSW 8.5 km/h 15.6 km/h 93 % 0 mm
13:46 -14.8 °C -15.4 °C 34946.9 hPa SW 8.5 km/h 15.6 km/h 92 % 0 mm
13:51 -14.8 °C -15.4 °C 34946.9 hPa SW 7.7 km/h 14 km/h 92 % 0 mm
13:56 -14.8 °C -15.4 °C 34946.9 hPa SW 6.9 km/h 14 km/h 92 % 0 mm
14:01 -14.8 °C -15.4 °C 34946.9 hPa West 4.7 km/h 9.3 km/h 92 % 0 mm
14:06 -14.8 °C -15.4 °C 34946.9 hPa WNW 2.9 km/h 9.8 km/h 92 % 0 mm
14:11 -14.8 °C -15.4 °C 34946.9 hPa WSW 5 km/h 12.2 km/h 92 % 0 mm
14:16 -14.7 °C -15.4 °C 34946.9 hPa West 7.2 km/h 15 km/h 92 % 0 mm
14:21 -14.8 °C -15.4 °C 34946.9 hPa WNW 7.6 km/h 15 km/h 92 % 0 mm
14:26 -14.7 °C -15.4 °C 34946.9 hPa WNW 6.3 km/h 12.2 km/h 91 % 0 mm
14:31 -14.8 °C -15.5 °C 34946.9 hPa NW 5.6 km/h 12.2 km/h 91 % 0 mm
14:36 -14.7 °C -15.4 °C 34946.9 hPa NNW 5.1 km/h 9.3 km/h 91 % 0 mm
14:41 -14.7 °C -15.4 °C 34909.7 hPa NW 4.7 km/h 11.6 km/h 91 % 0 mm
14:46 -14.6 °C -15.4 °C 34909.7 hPa NW 5 km/h 11.6 km/h 91 % 0 mm
14:51 -14.6 °C -15.3 °C 34909.7 hPa WSW 5 km/h 12.7 km/h 91 % 0 mm
14:56 -14.5 °C -15.2 °C 34909.7 hPa WSW 5.6 km/h 12.7 km/h 91 % 0 mm
15:01 -14.5 °C -15.2 °C 34909.7 hPa SW 4.2 km/h 9.3 km/h 91 % 0 mm
15:06 -14.5 °C -15.2 °C 34909.7 hPa SSW 6 km/h 9.8 km/h 91 % 0 mm
15:11 -14.5 °C -15.3 °C 34909.7 hPa SW 8 km/h 11.1 km/h 90 % 0 mm
15:16 -14.6 °C -15.4 °C 34909.7 hPa SW 7.7 km/h 11.1 km/h 90 % 0 mm
15:21 -14.6 °C -15.4 °C 34909.7 hPa SSW 7.6 km/h 10.3 km/h 90 % 0 mm
15:26 -14.6 °C -15.4 °C 34909.7 hPa SSW 7.2 km/h 10.3 km/h 90 % 0 mm
15:31 -14.6 °C -15.4 °C 34909.7 hPa SW 5.6 km/h 10.3 km/h 90 % 0 mm
15:37 -14.6 °C -15.5 °C 34909.7 hPa SW 4.3 km/h 7.6 km/h 89 % 0 mm
15:42 -14.6 °C -15.5 °C 34909.7 hPa SW 3.1 km/h 6.4 km/h 89 % 0 mm
15:47 -14.6 °C -15.5 °C 34909.7 hPa SW 1.6 km/h 5.1 km/h 89 % 0 mm
15:52 -14.6 °C -15.5 °C 34909.7 hPa SW 0.5 km/h 5.1 km/h 89 % 0 mm
15:57 -14.6 °C -15.6 °C 34909.7 hPa SE 0.3 km/h 5.1 km/h 89 % 0 mm
16:02 -14.6 °C -15.6 °C 34909.7 hPa SE 0.5 km/h 5.1 km/h 89 % 0 mm
16:07 -14.7 °C -15.7 °C 34909.7 hPa SSE 0.3 km/h 3.4 km/h 88 % 0 mm
16:12 -14.7 °C -15.7 °C 34909.7 hPa Calm   3.4 km/h 88 % 0 mm
16:17 -14.8 °C -15.8 °C 34909.7 hPa Calm   2.3 km/h 88 % 0 mm
16:22 -14.8 °C -15.8 °C 34909.7 hPa Calm     88 % 0 mm
16:27 -14.9 °C -15.9 °C 34909.7 hPa Calm     88 % 0 mm
16:32 -15 °C -16 °C 34909.7 hPa Calm     88 % 0 mm
16:37 -15.1 °C -16.1 °C 34909.7 hPa SW 0.3 km/h 6.9 km/h 88 % 0 mm
16:42 -15.2 °C -16.2 °C 34909.7 hPa SW 3.4 km/h 8.9 km/h 88 % 0 mm
16:47 -15.3 °C -16.3 °C 34909.7 hPa WSW 3.4 km/h 8.9 km/h 88 % 0 mm
16:52 -15.4 °C -16.4 °C 34909.7 hPa North 0.5 km/h 4.2 km/h 88 % 0 mm
16:57 -15.5 °C -16.6 °C 34909.7 hPa Calm     87 % 0 mm
17:02 -15.6 °C -16.6 °C 34909.7 hPa SW 0.3 km/h 4.2 km/h 88 % 0 mm
17:07 -15.8 °C -16.8 °C 34909.7 hPa WNW 0.5 km/h 4.2 km/h 88 % 0 mm
17:12 -15.8 °C -16.8 °C 34909.7 hPa NW 0.5 km/h 4.2 km/h 88 % 0 mm
17:17 -15.9 °C -17.1 °C 34909.7 hPa Calm     87 % 0 mm
17:22 -16.1 °C -17.1 °C 34909.7 hPa NW 0.5 km/h 5.6 km/h 87 % 0 mm
17:27 -16.2 °C -17.2 °C 34909.7 hPa NW 0.5 km/h 5.6 km/h 88 % 0 mm
17:32 -16.2 °C -17.2 °C 34909.7 hPa Calm     88 % 0 mm
17:37 -16.3 °C -17.3 °C 34909.7 hPa Calm     88 % 0 mm
17:42 -16.4 °C -17.4 °C 34909.7 hPa Calm     88 % 0 mm
17:47 -16.4 °C -17.4 °C 34909.7 hPa WSW 0.3 km/h 4.2 km/h 88 % 0 mm
17:52 -16.6 °C -17.6 °C 34909.7 hPa WSW 0.3 km/h 4.2 km/h 87 % 0 mm
17:57 -16.7 °C -17.7 °C 34909.7 hPa WSW 0.3 km/h 5.1 km/h 87 % 0 mm
18:02 -16.7 °C -17.7 °C 34909.7 hPa WSW 0.5 km/h 5.1 km/h 87 % 0 mm
18:07 -16.7 °C -17.7 °C 34909.7 hPa North 0.3 km/h   88 % 0 mm
18:12 -16.8 °C -17.8 °C 34909.7 hPa Calm     88 % 0 mm
18:17 -16.8 °C -17.8 °C 34909.7 hPa Calm     88 % 0 mm
18:22 -16.9 °C -17.9 °C 34909.7 hPa Calm     88 % 0 mm
18:27 -17 °C -18 °C 34909.7 hPa Calm     88 % 0 mm
18:32 -17.1 °C -18 °C 34909.7 hPa Calm     88 % 0 mm
18:37 -17.1 °C -18.1 °C 34909.7 hPa Calm     88 % 0 mm
18:42 -17.2 °C -18.2 °C 34909.7 hPa Calm     88 % 0 mm
18:47 -17.2 °C -18.2 °C 34909.7 hPa Calm     88 % 0 mm
18:52 -17.2 °C -18.2 °C 34909.7 hPa NW 0.5 km/h 5.1 km/h 88 % 0 mm
18:57 -17.3 °C -18.3 °C 34909.7 hPa NW 0.5 km/h 5.1 km/h 88 % 0 mm
19:02 -17.3 °C -18.3 °C 34909.7 hPa Calm     88 % 0 mm
19:07 -17.3 °C -18.3 °C 34909.7 hPa Calm     88 % 0 mm
19:12 -17.3 °C -18.3 °C 34909.7 hPa Calm     88 % 0 mm
19:18 -17.4 °C -18.3 °C 34909.7 hPa Calm     89 % 0 mm
19:23 -17.4 °C -18.3 °C 34909.7 hPa Calm     89 % 0 mm
19:28 -17.4 °C -18.3 °C 34909.7 hPa Calm   3.4 km/h 89 % 0 mm
19:33 -17.4 °C -18.3 °C 34909.7 hPa Calm   3.4 km/h 89 % 0 mm
19:38 -17.5 °C -18.4 °C 34909.7 hPa Calm     89 % 0 mm
19:43 -17.5 °C -18.4 °C 34909.7 hPa Calm     89 % 0 mm
19:48 -17.6 °C -18.4 °C 34909.7 hPa Calm     89 % 0 mm
19:53 -17.6 °C -18.4 °C 34909.7 hPa Calm     89 % 0 mm
19:58 -17.6 °C -18.5 °C 34909.7 hPa Calm     89 % 0 mm
20:03 -17.6 °C -18.5 °C 34909.7 hPa Calm     89 % 0 mm
20:08 -17.7 °C -18.6 °C 34909.7 hPa Calm     89 % 0 mm
20:13 -17.7 °C -18.6 °C 34946.9 hPa Calm     89 % 0 mm
20:18 -17.7 °C -18.6 °C 34946.9 hPa Calm     89 % 0 mm
20:23 -17.7 °C -18.6 °C 34946.9 hPa Calm     89 % 0 mm
20:28 -17.7 °C -18.6 °C 34946.9 hPa Calm     89 % 0 mm
20:33 -17.8 °C -18.7 °C 34946.9 hPa Calm     89 % 0 mm
20:38 -17.8 °C -18.7 °C 34946.9 hPa Calm     89 % 0 mm
20:43 -17.8 °C -18.7 °C 34946.9 hPa Calm     89 % 0 mm
20:48 -17.8 °C -18.7 °C 34946.9 hPa Calm     89 % 0 mm
20:53 -17.8 °C -18.7 °C 34946.9 hPa Calm     90 % 0 mm
20:58 -17.8 °C -18.7 °C 34946.9 hPa Calm     90 % 0 mm
21:03 -17.8 °C -18.7 °C 34946.9 hPa Calm     90 % 0 mm
21:08 -17.9 °C -18.7 °C 34946.9 hPa Calm     90 % 0 mm
21:13 -17.9 °C -18.7 °C 34909.7 hPa Calm     90 % 0 mm
21:18 -17.9 °C -18.7 °C 34909.7 hPa Calm     90 % 0 mm
21:23 -17.9 °C -18.7 °C 34909.7 hPa Calm     90 % 0 mm
21:28 -17.9 °C -18.7 °C 34909.7 hPa Calm     90 % 0 mm
21:33 -17.9 °C -18.7 °C 34909.7 hPa Calm     90 % 0 mm
21:38 -17.9 °C -18.7 °C 34909.7 hPa Calm     90 % 0 mm
21:43 -18 °C -18.8 °C 34909.7 hPa Calm     90 % 0 mm
21:48 -18 °C -18.8 °C 34909.7 hPa Calm     90 % 0 mm
21:53 -17.9 °C -18.7 °C 34909.7 hPa Calm   5.1 km/h 90 % 0 mm
21:58 -17.9 °C -18.7 °C 34909.7 hPa SW 1.6 km/h 5.6 km/h 90 % 0 mm
22:04 -17.9 °C -18.7 °C 34909.7 hPa SW 1.3 km/h 5.6 km/h 90 % 0 mm
22:08 -17.9 °C -18.6 °C 34909.7 hPa Calm     91 % 0 mm
22:14 -17.9 °C -18.7 °C 34946.9 hPa Calm     91 % 0 mm
22:19 -17.9 °C -18.6 °C 34946.9 hPa Calm     91 % 0 mm
22:24 -17.9 °C -18.6 °C 34946.9 hPa Calm     91 % 0 mm
22:29 -17.9 °C -18.6 °C 34909.7 hPa Calm     91 % 0 mm
22:34 -17.9 °C -18.6 °C 34909.7 hPa Calm     91 % 0 mm
22:39 -17.8 °C -18.6 °C 34909.7 hPa Calm     91 % 0 mm
22:44 -17.8 °C -18.6 °C 34909.7 hPa Calm     91 % 0 mm
22:49 -17.8 °C -18.4 °C 34909.7 hPa Calm     92 % 0 mm
22:54 -17.8 °C -18.4 °C 34909.7 hPa Calm     92 % 0 mm
22:59 -17.7 °C -18.4 °C 34909.7 hPa Calm     92 % 0 mm
23:04 -17.7 °C -18.4 °C 34909.7 hPa Calm     92 % 0 mm
23:09 -17.7 °C -18.4 °C 34909.7 hPa Calm     92 % 0 mm
23:14 -17.7 °C -18.3 °C 34909.7 hPa Calm     92 % 0 mm
23:19 -17.7 °C -18.3 °C 34909.7 hPa Calm     92 % 0 mm
23:24 -17.7 °C -18.3 °C 34909.7 hPa Calm     92 % 0 mm
23:29 -17.6 °C -18.2 °C 34909.7 hPa Calm     93 % 0 mm
23:34 -17.6 °C -18.2 °C 34909.7 hPa Calm     93 % 0 mm
23:39 -17.6 °C -18.1 °C 34909.7 hPa Calm     93 % 0 mm
23:44 -17.6 °C -18.1 °C 34875.8 hPa Calm     93 % 0 mm
23:49 -17.6 °C -18.1 °C 34875.8 hPa Calm     93 % 0 mm
23:54 -17.5 °C -18.1 °C 34875.8 hPa Calm     93 % 0 mm
23:59 -17.5 °C -18.1 °C 34909.7 hPa Calm     93 % 0 mm
Vremenska postaja Senovo
Podatki zbrani iz Weather Underground - 3 mb

Script developed by  Jim McMurry - jmcmurry@mwt.net Adapted for the template by  Wim van der Kuil - Leuven-Template.eu

Vremenski podatki so objavljeni na:

European Weather Network

WeatherCloud

Weather Underground

AWEKAS

HAMweather, WeatherForYou, PWS Weather

MapView

Geostik

Slovenia weather network

Oprema, ki se uporablja:

Vremenski program
Cumulus

Vremenski server
Asus

Cumulus

Asus